createdAt,value
2022-08-08T00:01:08.418Z,64.76
2022-08-08T00:04:35.173Z,64.48
2022-08-08T00:07:19.096Z,65.41
2022-08-08T00:09:52.533Z,66.20
2022-08-08T00:12:24.759Z,66.03
2022-08-08T00:15:56.858Z,66.31
2022-08-08T00:18:35.157Z,66.76
2022-08-08T00:21:06.061Z,67.76
2022-08-08T00:23:54.421Z,66.72
2022-08-08T00:26:30.021Z,67.47
2022-08-08T00:29:44.410Z,68.33
2022-08-08T00:32:34.532Z,68.43
2022-08-08T00:35:24.304Z,67.85
2022-08-08T00:38:32.190Z,68.29
2022-08-08T00:41:21.897Z,67.69
2022-08-08T00:44:00.743Z,68.42
2022-08-08T00:47:14.153Z,68.91
2022-08-08T00:50:33.711Z,69.50
2022-08-08T00:53:57.322Z,69.14
2022-08-08T00:57:12.776Z,68.93
2022-08-08T01:00:16.091Z,68.70
2022-08-08T01:03:58.129Z,69.12
2022-08-08T01:06:16.149Z,70.46
2022-08-08T01:09:48.577Z,71.12
2022-08-08T01:12:39.618Z,71.58
2022-08-08T01:15:53.439Z,71.76
2022-08-08T01:18:50.766Z,71.68
2022-08-08T01:22:10.056Z,71.56
2022-08-08T01:24:50.910Z,70.84
2022-08-08T01:27:59.474Z,70.38
2022-08-08T01:30:36.283Z,70.13
2022-08-08T01:33:54.210Z,70.35
2022-08-08T01:36:50.614Z,71.10
2022-08-08T01:39:34.864Z,71.77
2022-08-08T01:42:21.590Z,72.19
2022-08-08T01:45:40.264Z,72.09
2022-08-08T01:48:30.359Z,72.16
2022-08-08T01:51:03.692Z,72.39
2022-08-08T01:55:16.859Z,71.53
2022-08-08T01:57:17.476Z,70.92
2022-08-08T02:00:03.858Z,70.28
2022-08-08T02:02:45.650Z,69.38
2022-08-08T02:05:55.868Z,69.59
2022-08-08T02:10:01.997Z,70.62
2022-08-08T02:12:42.843Z,69.98
2022-08-08T02:15:39.069Z,69.90
2022-08-08T02:18:14.962Z,70.66
2022-08-08T02:21:24.467Z,70.43
2022-08-08T02:24:02.502Z,71.08
2022-08-08T02:26:38.976Z,71.09
2022-08-08T02:29:18.808Z,71.46
2022-08-08T02:31:58.745Z,71.72
2022-08-08T02:35:07.723Z,71.30
2022-08-08T02:38:09.587Z,71.33
2022-08-08T02:41:58.176Z,71.61
2022-08-08T02:44:42.797Z,71.32
2022-08-08T02:47:47.081Z,70.65
2022-08-08T02:50:36.937Z,70.46
2022-08-08T02:53:44.127Z,70.66
2022-08-08T02:56:40.006Z,70.73
2022-08-08T02:59:37.503Z,70.52
2022-08-08T03:02:50.575Z,70.70
2022-08-08T03:05:55.744Z,71.17
2022-08-08T03:09:04.381Z,70.73
2022-08-08T03:12:01.279Z,71.17
2022-08-08T03:16:00.050Z,70.94
2022-08-08T03:17:39.719Z,70.95
2022-08-08T03:20:10.361Z,71.53
2022-08-08T03:22:47.123Z,72.10
2022-08-08T03:25:18.588Z,72.15
2022-08-08T03:27:45.553Z,71.71
2022-08-08T03:30:19.114Z,71.64
2022-08-08T03:33:07.884Z,71.73
2022-08-08T03:35:52.915Z,71.10
2022-08-08T03:38:56.984Z,71.61
2022-08-08T03:42:11.480Z,70.57
2022-08-08T03:43:59.579Z,70.53
2022-08-08T03:46:32.443Z,71.57
2022-08-08T03:49:28.057Z,71.04
2022-08-08T03:51:55.357Z,70.23
2022-08-08T03:54:40.624Z,71.55
2022-08-08T03:58:32.184Z,73.46
2022-08-08T04:00:11.474Z,74.63
2022-08-08T04:02:47.574Z,75.35
2022-08-08T04:05:19.464Z,75.94
2022-08-08T04:07:50.966Z,75.07
2022-08-08T04:10:20.100Z,75.27
2022-08-08T04:12:49.884Z,75.63
2022-08-08T04:15:16.721Z,74.91
2022-08-08T04:17:58.207Z,74.48
2022-08-08T04:20:28.059Z,73.53
2022-08-08T04:22:56.936Z,73.48
2022-08-08T04:25:29.784Z,74.35
2022-08-08T04:28:35.563Z,74.65
2022-08-08T04:30:44.669Z,75.71
2022-08-08T04:33:11.599Z,74.08
2022-08-08T04:35:43.895Z,74.54
2022-08-08T04:38:21.183Z,74.40
2022-08-08T04:40:53.462Z,74.25
2022-08-08T04:43:22.009Z,74.00
2022-08-08T04:45:50.206Z,74.33
2022-08-08T04:48:21.763Z,74.57
2022-08-08T04:50:48.764Z,75.75
2022-08-08T04:54:27.653Z,77.20
2022-08-08T04:56:04.139Z,77.20
2022-08-08T04:58:31.124Z,78.37
2022-08-08T05:00:59.749Z,78.42
2022-08-08T05:04:10.215Z,78.63
2022-08-08T05:06:18.391Z,79.70
2022-08-08T05:08:52.276Z,80.50
2022-08-08T05:11:23.906Z,81.04
2022-08-08T05:13:57.961Z,81.19
2022-08-08T05:16:50.776Z,81.18
2022-08-08T05:20:11.692Z,80.40
2022-08-08T05:22:00.945Z,79.08
2022-08-08T05:24:27.774Z,78.20
2022-08-08T05:26:57.702Z,76.88
2022-08-08T05:29:24.428Z,75.84
2022-08-08T05:32:03.021Z,75.52
2022-08-08T05:34:49.244Z,75.44
2022-08-08T05:37:39.403Z,74.62
2022-08-08T05:40:14.574Z,73.70
2022-08-08T05:42:43.483Z,73.17
2022-08-08T05:45:30.754Z,72.67
2022-08-08T05:48:01.473Z,71.84
2022-08-08T05:50:36.058Z,71.13
2022-08-08T05:53:55.271Z,70.37
2022-08-08T05:56:10.323Z,71.06
2022-08-08T05:58:56.883Z,71.04
2022-08-08T06:01:55.654Z,70.36
2022-08-08T06:04:23.486Z,70.72
2022-08-08T06:07:00.370Z,69.94
2022-08-08T06:10:00.267Z,69.34
2022-08-08T06:12:30.421Z,68.74
2022-08-08T06:15:00.994Z,68.87
2022-08-08T06:17:50.783Z,69.08
2022-08-08T06:20:19.712Z,67.68
2022-08-08T06:22:50.232Z,69.67
2022-08-08T06:25:18.165Z,70.13
2022-08-08T06:27:55.108Z,69.72
2022-08-08T06:30:28.222Z,69.96
2022-08-08T06:33:01.022Z,69.17
2022-08-08T06:36:06.051Z,69.36
2022-08-08T06:38:27.719Z,71.32
2022-08-08T06:41:04.085Z,71.49
2022-08-08T06:43:34.783Z,71.59
2022-08-08T06:46:04.368Z,72.00
2022-08-08T06:48:36.289Z,70.17
2022-08-08T06:51:08.492Z,70.34
2022-08-08T06:53:39.983Z,69.31
2022-08-08T06:56:18.013Z,67.60
2022-08-08T06:58:49.722Z,68.92
2022-08-08T07:02:17.564Z,67.87
2022-08-08T07:04:41.397Z,65.64
2022-08-08T07:07:09.667Z,65.78
2022-08-08T07:09:56.291Z,66.07
2022-08-08T07:12:37.811Z,66.69
2022-08-08T07:15:23.474Z,66.12
2022-08-08T07:18:35.191Z,64.72
2022-08-08T07:20:51.703Z,63.86
2022-08-08T07:23:23.667Z,63.96
2022-08-08T07:25:54.743Z,63.90
2022-08-08T07:28:31.464Z,63.13
2022-08-08T07:30:59.136Z,61.79
2022-08-08T07:33:26.147Z,60.08
2022-08-08T07:35:54.710Z,61.73
2022-08-08T07:38:25.659Z,60.49
2022-08-08T07:40:59.075Z,59.70
2022-08-08T07:43:36.927Z,61.53
2022-08-08T07:46:23.879Z,59.06
2022-08-08T07:48:51.434Z,60.80
2022-08-08T07:51:23.188Z,59.96
2022-08-08T07:54:07.667Z,61.49
2022-08-08T07:57:02.717Z,59.30
2022-08-08T07:59:38.043Z,58.14
2022-08-08T08:02:34.717Z,59.86
2022-08-08T08:05:00.744Z,55.93
2022-08-08T08:07:37.693Z,57.37
2022-08-08T08:10:08.289Z,58.44
2022-08-08T08:12:51.489Z,56.29
2022-08-08T08:15:23.254Z,56.62
2022-08-08T08:17:55.967Z,54.25
2022-08-08T08:20:30.470Z,55.08
2022-08-08T08:22:57.219Z,53.99
2022-08-08T08:25:43.838Z,52.67
2022-08-08T08:28:10.633Z,53.75
2022-08-08T08:30:43.781Z,51.16
2022-08-08T08:33:12.761Z,51.60
2022-08-08T08:36:19.593Z,53.58
2022-08-08T08:38:27.782Z,53.53
2022-08-08T08:40:54.838Z,50.41
2022-08-08T08:43:26.988Z,52.75
2022-08-08T08:45:57.373Z,51.98
2022-08-08T08:48:25.162Z,50.85
2022-08-08T08:50:53.229Z,50.90
2022-08-08T08:53:55.138Z,49.61
2022-08-08T08:56:09.996Z,53.01
2022-08-08T08:58:42.105Z,51.33
2022-08-08T09:01:13.452Z,47.22
2022-08-08T09:03:50.616Z,47.83
2022-08-08T09:06:50.285Z,48.81
2022-08-08T09:09:35.267Z,47.54
2022-08-08T09:12:09.582Z,48.49
2022-08-08T09:14:42.695Z,47.66
2022-08-08T09:17:17.978Z,44.87
2022-08-08T09:22:01.321Z,44.80
2022-08-08T09:22:35.199Z,44.77
2022-08-08T09:25:03.863Z,44.90
2022-08-08T09:27:55.457Z,42.33
2022-08-08T09:30:20.178Z,46.68
2022-08-08T09:33:55.431Z,45.92
2022-08-08T09:35:48.978Z,43.68
2022-08-08T09:38:53.233Z,43.11
2022-08-08T09:42:15.010Z,41.96
2022-08-08T09:44:29.751Z,43.21
2022-08-08T09:48:05.015Z,41.73
2022-08-08T09:49:53.782Z,41.88
2022-08-08T09:52:55.853Z,44.28
2022-08-08T09:55:17.049Z,42.26
2022-08-08T09:57:55.471Z,43.42
2022-08-08T10:00:49.817Z,41.63
2022-08-08T10:03:19.930Z,42.66
2022-08-08T10:05:47.070Z,41.91
2022-08-08T10:08:13.639Z,42.29
2022-08-08T10:10:50.159Z,40.63
2022-08-08T10:13:32.300Z,41.32
2022-08-08T10:16:05.239Z,41.62
2022-08-08T10:18:34.859Z,41.95
2022-08-08T10:21:26.026Z,40.37
2022-08-08T10:24:03.158Z,42.88
2022-08-08T10:26:51.952Z,41.59
2022-08-08T10:29:23.248Z,39.98
2022-08-08T10:32:15.985Z,40.76
2022-08-08T10:35:01.264Z,40.41
2022-08-08T10:37:34.621Z,41.63
2022-08-08T10:40:16.231Z,39.88
2022-08-08T10:42:45.055Z,40.62
2022-08-08T10:45:12.245Z,39.31
2022-08-08T10:47:48.672Z,40.00
2022-08-08T10:50:30.684Z,40.05
2022-08-08T10:53:02.459Z,40.80
2022-08-08T10:55:39.925Z,39.28
2022-08-08T10:58:10.738Z,38.80
2022-08-08T11:00:53.309Z,39.36
2022-08-08T11:04:01.161Z,39.99
2022-08-08T11:06:34.241Z,38.79
2022-08-08T11:09:15.064Z,38.81
2022-08-08T11:12:05.928Z,38.02
2022-08-08T11:14:34.765Z,38.50
2022-08-08T11:17:03.909Z,38.31
2022-08-08T11:19:33.654Z,40.44
2022-08-08T11:22:04.261Z,39.01
2022-08-08T11:24:35.610Z,37.24
2022-08-08T11:27:10.783Z,39.94
2022-08-08T11:30:04.200Z,42.33
2022-08-08T11:32:47.263Z,39.63
2022-08-08T11:35:24.880Z,39.85
2022-08-08T11:38:39.428Z,38.99
2022-08-08T11:40:46.397Z,38.24
2022-08-08T11:43:18.356Z,40.20
2022-08-08T11:46:09.536Z,39.86
2022-08-08T11:48:38.576Z,39.07
2022-08-08T11:51:29.993Z,38.96
2022-08-08T11:53:59.147Z,36.57
2022-08-08T11:56:34.620Z,37.07
2022-08-08T11:59:12.026Z,37.54
2022-08-08T12:01:39.225Z,36.60
2022-08-08T12:04:08.414Z,38.29
2022-08-08T12:06:34.980Z,37.26
2022-08-08T12:09:07.334Z,39.70
2022-08-08T12:11:42.675Z,37.44
2022-08-08T12:14:11.703Z,36.93
2022-08-08T12:16:48.927Z,37.65
2022-08-08T12:19:15.972Z,37.49
2022-08-08T12:22:00.295Z,36.04
2022-08-08T12:24:51.572Z,35.85
2022-08-08T12:27:20.939Z,36.58
2022-08-08T12:30:00.015Z,37.09
2022-08-08T12:32:31.269Z,36.82
2022-08-08T12:35:04.240Z,36.61
2022-08-08T12:37:41.173Z,36.27
2022-08-08T12:40:22.451Z,37.55
2022-08-08T12:42:50.044Z,37.99
2022-08-08T12:45:58.045Z,36.75
2022-08-08T12:48:37.549Z,37.89
2022-08-08T12:51:19.222Z,36.91
2022-08-08T12:54:00.531Z,37.80
2022-08-08T12:56:38.805Z,38.07
2022-08-08T12:59:36.474Z,37.11
2022-08-08T13:02:28.446Z,37.93
2022-08-08T13:04:59.204Z,38.30
2022-08-08T13:08:04.018Z,37.99
2022-08-08T13:10:36.272Z,38.53
2022-08-08T13:13:08.169Z,37.76
2022-08-08T13:15:35.600Z,39.24
2022-08-08T13:18:10.588Z,38.02
2022-08-08T13:20:48.995Z,38.39
2022-08-08T13:23:36.875Z,37.57
2022-08-08T13:26:14.604Z,37.98
2022-08-08T13:28:42.756Z,38.35
2022-08-08T13:31:16.265Z,36.60
2022-08-08T13:33:47.184Z,37.88
2022-08-08T13:36:17.201Z,38.19
2022-08-08T13:38:44.743Z,38.98
2022-08-08T13:41:16.664Z,38.78
2022-08-08T13:43:47.679Z,39.75
